sensor_id;sensor_type;location;lat;lon;timestamp;temperature;humidity
25983;DHT22;13773;48.868;10.730;2023-06-26T00:01:17;16.30;99.90
25983;DHT22;13773;48.868;10.730;2023-06-26T00:03:42;16.20;99.90
25983;DHT22;13773;48.868;10.730;2023-06-26T00:06:08;16.10;99.90
25983;DHT22;13773;48.868;10.730;2023-06-26T00:08:34;16.10;99.90
25983;DHT22;13773;48.868;10.730;2023-06-26T00:10:59;16.10;99.90
25983;DHT22;13773;48.868;10.730;2023-06-26T00:13:25;16.10;99.90
25983;DHT22;13773;48.868;10.730;2023-06-26T00:15:51;16.00;99.90
25983;DHT22;13773;48.868;10.730;2023-06-26T00:18:16;16.00;99.90
25983;DHT22;13773;48.868;10.730;2023-06-26T00:20:42;15.90;99.90
25983;DHT22;13773;48.868;10.730;2023-06-26T00:23:08;15.90;99.90
25983;DHT22;13773;48.868;10.730;2023-06-26T00:25:34;15.90;99.90
25983;DHT22;13773;48.868;10.730;2023-06-26T00:28:00;15.80;99.90
25983;DHT22;13773;48.868;10.730;2023-06-26T00:30:25;15.80;99.90
25983;DHT22;13773;48.868;10.730;2023-06-26T00:32:51;15.80;99.90
25983;DHT22;13773;48.868;10.730;2023-06-26T00:35:17;15.70;99.90
25983;DHT22;13773;48.868;10.730;2023-06-26T00:37:42;15.70;99.90
25983;DHT22;13773;48.868;10.730;2023-06-26T00:40:09;15.90;99.90
25983;DHT22;13773;48.868;10.730;2023-06-26T00:42:34;16.00;99.90
25983;DHT22;13773;48.868;10.730;2023-06-26T00:45:00;16.00;99.90
25983;DHT22;13773;48.868;10.730;2023-06-26T00:47:26;16.00;99.90
25983;DHT22;13773;48.868;10.730;2023-06-26T00:49:54;16.00;99.90
25983;DHT22;13773;48.868;10.730;2023-06-26T00:52:21;16.10;99.90
25983;DHT22;13773;48.868;10.730;2023-06-26T00:54:49;15.90;99.90
25983;DHT22;13773;48.868;10.730;2023-06-26T00:57:17;15.90;99.90
25983;DHT22;13773;48.868;10.730;2023-06-26T00:59:43;15.90;99.90
25983;DHT22;13773;48.868;10.730;2023-06-26T01:02:08;15.70;99.90
25983;DHT22;13773;48.868;10.730;2023-06-26T01:04:35;15.60;99.90
25983;DHT22;13773;48.868;10.730;2023-06-26T01:07:02;15.70;99.90
25983;DHT22;13773;48.868;10.730;2023-06-26T01:09:28;15.70;99.90
25983;DHT22;13773;48.868;10.730;2023-06-26T01:11:54;15.80;99.90
25983;DHT22;13773;48.868;10.730;2023-06-26T01:14:20;15.80;99.90
25983;DHT22;13773;48.868;10.730;2023-06-26T01:16:46;15.80;99.90
25983;DHT22;13773;48.868;10.730;2023-06-26T01:19:24;15.70;99.90
25983;DHT22;13773;48.868;10.730;2023-06-26T01:22:02;15.60;99.90
25983;DHT22;13773;48.868;10.730;2023-06-26T01:24:39;15.60;99.90
25983;DHT22;13773;48.868;10.730;2023-06-26T01:27:05;15.60;99.90
25983;DHT22;13773;48.868;10.730;2023-06-26T01:29:32;16.10;99.90
25983;DHT22;13773;48.868;10.730;2023-06-26T01:31:59;16.20;99.90
25983;DHT22;13773;48.868;10.730;2023-06-26T01:34:26;16.10;99.90
25983;DHT22;13773;48.868;10.730;2023-06-26T01:36:52;16.30;99.90
25983;DHT22;13773;48.868;10.730;2023-06-26T01:39:19;16.60;99.90
25983;DHT22;13773;48.868;10.730;2023-06-26T01:41:45;16.90;99.90
25983;DHT22;13773;48.868;10.730;2023-06-26T01:44:28;16.70;99.90
25983;DHT22;13773;48.868;10.730;2023-06-26T01:46:59;17.10;99.90
25983;DHT22;13773;48.868;10.730;2023-06-26T01:50:00;17.20;99.90
25983;DHT22;13773;48.868;10.730;2023-06-26T01:57:32;17.00;99.90
25983;DHT22;13773;48.868;10.730;2023-06-26T02:00:00;17.10;99.90
25983;DHT22;13773;48.868;10.730;2023-06-26T02:02:30;17.40;99.90
25983;DHT22;13773;48.868;10.730;2023-06-26T02:04:56;17.60;99.90
25983;DHT22;13773;48.868;10.730;2023-06-26T02:07:21;17.40;99.90
25983;DHT22;13773;48.868;10.730;2023-06-26T02:09:47;17.50;99.90
25983;DHT22;13773;48.868;10.730;2023-06-26T02:12:13;17.30;99.90
25983;DHT22;13773;48.868;10.730;2023-06-26T02:14:39;17.40;99.90
25983;DHT22;13773;48.868;10.730;2023-06-26T02:17:05;17.30;99.90
25983;DHT22;13773;48.868;10.730;2023-06-26T02:19:30;17.30;99.90
25983;DHT22;13773;48.868;10.730;2023-06-26T02:21:56;17.70;99.90
25983;DHT22;13773;48.868;10.730;2023-06-26T02:24:22;17.10;99.90
25983;DHT22;13773;48.868;10.730;2023-06-26T02:26:48;16.60;99.90
25983;DHT22;13773;48.868;10.730;2023-06-26T02:29:15;16.20;99.90
25983;DHT22;13773;48.868;10.730;2023-06-26T02:31:40;16.20;99.90
25983;DHT22;13773;48.868;10.730;2023-06-26T02:34:07;15.90;99.90
25983;DHT22;13773;48.868;10.730;2023-06-26T02:36:32;15.90;99.90
25983;DHT22;13773;48.868;10.730;2023-06-26T02:38:58;15.80;99.90
25983;DHT22;13773;48.868;10.730;2023-06-26T02:41:23;15.90;99.90
25983;DHT22;13773;48.868;10.730;2023-06-26T02:43:49;15.80;99.90
25983;DHT22;13773;48.868;10.730;2023-06-26T02:46:15;15.80;99.90
25983;DHT22;13773;48.868;10.730;2023-06-26T02:48:40;15.60;99.90
25983;DHT22;13773;48.868;10.730;2023-06-26T02:51:07;15.50;99.90
25983;DHT22;13773;48.868;10.730;2023-06-26T02:53:33;15.40;99.90
25983;DHT22;13773;48.868;10.730;2023-06-26T02:55:59;15.30;99.90
25983;DHT22;13773;48.868;10.730;2023-06-26T02:58:25;15.20;99.90
25983;DHT22;13773;48.868;10.730;2023-06-26T03:00:51;15.20;99.90
25983;DHT22;13773;48.868;10.730;2023-06-26T03:03:17;15.20;99.90
25983;DHT22;13773;48.868;10.730;2023-06-26T03:05:42;15.20;99.90
25983;DHT22;13773;48.868;10.730;2023-06-26T03:08:09;15.20;99.90
25983;DHT22;13773;48.868;10.730;2023-06-26T03:10:34;15.20;99.90
25983;DHT22;13773;48.868;10.730;2023-06-26T03:13:00;15.20;99.90
25983;DHT22;13773;48.868;10.730;2023-06-26T03:15:26;15.30;99.90
25983;DHT22;13773;48.868;10.730;2023-06-26T03:17:51;15.20;99.90
25983;DHT22;13773;48.868;10.730;2023-06-26T03:20:17;15.40;99.90
25983;DHT22;13773;48.868;10.730;2023-06-26T03:22:43;15.20;99.90
25983;DHT22;13773;48.868;10.730;2023-06-26T03:25:09;15.10;99.90
25983;DHT22;13773;48.868;10.730;2023-06-26T03:27:34;15.10;99.90
25983;DHT22;13773;48.868;10.730;2023-06-26T03:30:00;15.00;99.90
25983;DHT22;13773;48.868;10.730;2023-06-26T03:32:26;14.90;99.90
25983;DHT22;13773;48.868;10.730;2023-06-26T03:34:51;15.40;99.90
25983;DHT22;13773;48.868;10.730;2023-06-26T03:37:18;15.30;99.90
25983;DHT22;13773;48.868;10.730;2023-06-26T03:39:44;15.20;99.90
25983;DHT22;13773;48.868;10.730;2023-06-26T03:42:09;15.50;99.90
25983;DHT22;13773;48.868;10.730;2023-06-26T03:44:35;15.80;99.90
25983;DHT22;13773;48.868;10.730;2023-06-26T03:47:01;16.60;99.90
25983;DHT22;13773;48.868;10.730;2023-06-26T03:49:26;16.40;99.90
25983;DHT22;13773;48.868;10.730;2023-06-26T03:51:52;16.20;99.90
25983;DHT22;13773;48.868;10.730;2023-06-26T03:54:18;16.10;99.90
25983;DHT22;13773;48.868;10.730;2023-06-26T03:56:43;15.90;99.90
25983;DHT22;13773;48.868;10.730;2023-06-26T03:59:10;15.80;99.90
25983;DHT22;13773;48.868;10.730;2023-06-26T04:01:36;15.80;99.90
25983;DHT22;13773;48.868;10.730;2023-06-26T04:04:02;16.00;99.90
25983;DHT22;13773;48.868;10.730;2023-06-26T04:06:28;16.10;99.90
25983;DHT22;13773;48.868;10.730;2023-06-26T04:08:57;15.80;99.90
25983;DHT22;13773;48.868;10.730;2023-06-26T04:11:22;15.90;99.90
25983;DHT22;13773;48.868;10.730;2023-06-26T04:13:48;16.20;99.90
25983;DHT22;13773;48.868;10.730;2023-06-26T04:16:13;16.00;99.90
25983;DHT22;13773;48.868;10.730;2023-06-26T04:18:39;16.20;99.90
25983;DHT22;13773;48.868;10.730;2023-06-26T04:21:11;16.20;99.90
25983;DHT22;13773;48.868;10.730;2023-06-26T04:23:37;16.10;99.90
25983;DHT22;13773;48.868;10.730;2023-06-26T04:26:04;16.10;99.90
25983;DHT22;13773;48.868;10.730;2023-06-26T04:28:31;16.10;99.90
25983;DHT22;13773;48.868;10.730;2023-06-26T04:30:57;16.00;99.90
25983;DHT22;13773;48.868;10.730;2023-06-26T04:33:24;16.00;99.90
25983;DHT22;13773;48.868;10.730;2023-06-26T04:35:51;16.00;99.90
25983;DHT22;13773;48.868;10.730;2023-06-26T04:38:17;16.10;99.90
25983;DHT22;13773;48.868;10.730;2023-06-26T04:40:45;16.00;99.90
25983;DHT22;13773;48.868;10.730;2023-06-26T04:43:11;16.10;99.90
25983;DHT22;13773;48.868;10.730;2023-06-26T04:45:37;16.20;99.90
25983;DHT22;13773;48.868;10.730;2023-06-26T04:48:03;16.20;99.90
25983;DHT22;13773;48.868;10.730;2023-06-26T04:50:30;16.40;99.90
25983;DHT22;13773;48.868;10.730;2023-06-26T04:52:56;16.40;99.90
25983;DHT22;13773;48.868;10.730;2023-06-26T04:55:27;16.50;99.90
25983;DHT22;13773;48.868;10.730;2023-06-26T04:57:54;16.50;99.90
25983;DHT22;13773;48.868;10.730;2023-06-26T05:00:19;16.70;99.90
25983;DHT22;13773;48.868;10.730;2023-06-26T05:02:45;16.70;99.90
25983;DHT22;13773;48.868;10.730;2023-06-26T05:05:11;16.80;99.90
25983;DHT22;13773;48.868;10.730;2023-06-26T05:07:37;16.90;99.90
25983;DHT22;13773;48.868;10.730;2023-06-26T05:10:03;17.30;99.90
25983;DHT22;13773;48.868;10.730;2023-06-26T05:12:29;17.90;99.90
25983;DHT22;13773;48.868;10.730;2023-06-26T05:14:55;18.60;99.90
25983;DHT22;13773;48.868;10.730;2023-06-26T05:17:21;18.70;99.90
25983;DHT22;13773;48.868;10.730;2023-06-26T05:19:46;19.40;99.90
25983;DHT22;13773;48.868;10.730;2023-06-26T05:22:12;19.70;99.90
25983;DHT22;13773;48.868;10.730;2023-06-26T05:24:39;20.30;99.90
25983;DHT22;13773;48.868;10.730;2023-06-26T05:27:06;20.90;99.90
25983;DHT22;13773;48.868;10.730;2023-06-26T05:29:33;21.90;99.90
25983;DHT22;13773;48.868;10.730;2023-06-26T05:31:59;22.60;99.90
25983;DHT22;13773;48.868;10.730;2023-06-26T05:34:26;22.30;99.90
25983;DHT22;13773;48.868;10.730;2023-06-26T05:36:57;22.60;99.90
25983;DHT22;13773;48.868;10.730;2023-06-26T05:39:24;23.00;99.90
25983;DHT22;13773;48.868;10.730;2023-06-26T05:41:50;23.50;99.90
25983;DHT22;13773;48.868;10.730;2023-06-26T05:44:16;23.70;99.90
25983;DHT22;13773;48.868;10.730;2023-06-26T05:46:42;24.40;99.90
25983;DHT22;13773;48.868;10.730;2023-06-26T05:49:08;25.40;99.90
25983;DHT22;13773;48.868;10.730;2023-06-26T05:51:34;25.50;99.90
25983;DHT22;13773;48.868;10.730;2023-06-26T05:53:59;25.60;99.90
25983;DHT22;13773;48.868;10.730;2023-06-26T05:56:26;25.80;99.90
25983;DHT22;13773;48.868;10.730;2023-06-26T05:58:53;25.00;99.90
25983;DHT22;13773;48.868;10.730;2023-06-26T06:01:19;25.90;99.90
25983;DHT22;13773;48.868;10.730;2023-06-26T06:03:45;25.20;99.90
25983;DHT22;13773;48.868;10.730;2023-06-26T06:06:11;26.30;99.90
25983;DHT22;13773;48.868;10.730;2023-06-26T06:08:38;26.30;99.90
25983;DHT22;13773;48.868;10.730;2023-06-26T06:11:03;27.10;99.90
25983;DHT22;13773;48.868;10.730;2023-06-26T06:13:29;27.10;99.90
25983;DHT22;13773;48.868;10.730;2023-06-26T06:15:55;27.90;99.90
25983;DHT22;13773;48.868;10.730;2023-06-26T06:18:21;28.00;99.90
25983;DHT22;13773;48.868;10.730;2023-06-26T06:20:47;27.80;99.90
25983;DHT22;13773;48.868;10.730;2023-06-26T06:23:14;27.30;99.90
25983;DHT22;13773;48.868;10.730;2023-06-26T06:25:39;27.80;99.90
25983;DHT22;13773;48.868;10.730;2023-06-26T06:28:05;28.40;99.50
25983;DHT22;13773;48.868;10.730;2023-06-26T06:30:31;28.70;99.10
25983;DHT22;13773;48.868;10.730;2023-06-26T06:32:57;29.80;98.20
25983;DHT22;13773;48.868;10.730;2023-06-26T06:35:23;29.50;97.90
25983;DHT22;13773;48.868;10.730;2023-06-26T06:37:49;29.00;97.30
25983;DHT22;13773;48.868;10.730;2023-06-26T06:40:15;28.90;97.40
25983;DHT22;13773;48.868;10.730;2023-06-26T06:42:41;29.00;97.30
25983;DHT22;13773;48.868;10.730;2023-06-26T06:45:07;29.40;96.70
25983;DHT22;13773;48.868;10.730;2023-06-26T06:47:34;29.70;96.30
25983;DHT22;13773;48.868;10.730;2023-06-26T06:50:00;29.70;96.10
25983;DHT22;13773;48.868;10.730;2023-06-26T06:52:37;29.30;96.40
25983;DHT22;13773;48.868;10.730;2023-06-26T06:55:04;29.20;96.60
25983;DHT22;13773;48.868;10.730;2023-06-26T06:57:32;29.20;96.80
25983;DHT22;13773;48.868;10.730;2023-06-26T07:00:08;29.50;96.30
25983;DHT22;13773;48.868;10.730;2023-06-26T07:02:36;29.00;96.30
25983;DHT22;13773;48.868;10.730;2023-06-26T07:05:03;29.90;96.00
25983;DHT22;13773;48.868;10.730;2023-06-26T07:07:30;29.90;95.90
25983;DHT22;13773;48.868;10.730;2023-06-26T07:10:00;29.90;95.30
25983;DHT22;13773;48.868;10.730;2023-06-26T07:12:26;29.70;95.70
25983;DHT22;13773;48.868;10.730;2023-06-26T07:14:52;29.10;96.20
25983;DHT22;13773;48.868;10.730;2023-06-26T07:17:19;29.30;96.40
25983;DHT22;13773;48.868;10.730;2023-06-26T07:19:45;29.30;96.20
25983;DHT22;13773;48.868;10.730;2023-06-26T07:22:11;29.50;96.00
25983;DHT22;13773;48.868;10.730;2023-06-26T07:24:37;29.30;95.80
25983;DHT22;13773;48.868;10.730;2023-06-26T07:27:03;28.90;96.40
25983;DHT22;13773;48.868;10.730;2023-06-26T07:29:29;28.60;96.60
25983;DHT22;13773;48.868;10.730;2023-06-26T07:31:54;28.20;97.00
25983;DHT22;13773;48.868;10.730;2023-06-26T07:34:20;28.00;97.40
25983;DHT22;13773;48.868;10.730;2023-06-26T07:36:46;28.10;97.80
25983;DHT22;13773;48.868;10.730;2023-06-26T07:39:11;27.80;97.70
25983;DHT22;13773;48.868;10.730;2023-06-26T07:41:37;27.90;98.10
25983;DHT22;13773;48.868;10.730;2023-06-26T07:44:03;27.50;97.80
25983;DHT22;13773;48.868;10.730;2023-06-26T07:46:28;27.50;98.10
25983;DHT22;13773;48.868;10.730;2023-06-26T07:48:54;27.10;98.10
25983;DHT22;13773;48.868;10.730;2023-06-26T07:51:20;27.10;98.20
25983;DHT22;13773;48.868;10.730;2023-06-26T07:53:46;27.30;98.90
25983;DHT22;13773;48.868;10.730;2023-06-26T07:56:11;27.40;98.60
25983;DHT22;13773;48.868;10.730;2023-06-26T07:58:37;27.20;97.90
25983;DHT22;13773;48.868;10.730;2023-06-26T08:01:03;27.30;98.80
25983;DHT22;13773;48.868;10.730;2023-06-26T08:03:28;27.50;99.10
25983;DHT22;13773;48.868;10.730;2023-06-26T08:05:54;27.70;99.10
25983;DHT22;13773;48.868;10.730;2023-06-26T08:08:20;27.70;99.00
25983;DHT22;13773;48.868;10.730;2023-06-26T08:10:45;28.00;99.10
25983;DHT22;13773;48.868;10.730;2023-06-26T08:13:11;28.10;98.70
25983;DHT22;13773;48.868;10.730;2023-06-26T08:15:37;26.60;97.90
25983;DHT22;13773;48.868;10.730;2023-06-26T08:18:03;28.30;98.00
25983;DHT22;13773;48.868;10.730;2023-06-26T08:20:28;28.40;97.90
25983;DHT22;13773;48.868;10.730;2023-06-26T08:22:55;28.30;97.60
25983;DHT22;13773;48.868;10.730;2023-06-26T08:25:20;28.30;97.10
25983;DHT22;13773;48.868;10.730;2023-06-26T08:27:46;28.50;97.60
25983;DHT22;13773;48.868;10.730;2023-06-26T08:30:12;28.60;97.90
25983;DHT22;13773;48.868;10.730;2023-06-26T08:32:39;28.70;97.00
25983;DHT22;13773;48.868;10.730;2023-06-26T08:35:06;28.50;97.40
25983;DHT22;13773;48.868;10.730;2023-06-26T08:37:38;28.80;97.20
25983;DHT22;13773;48.868;10.730;2023-06-26T08:40:04;29.00;96.70
25983;DHT22;13773;48.868;10.730;2023-06-26T08:42:30;29.10;96.50
25983;DHT22;13773;48.868;10.730;2023-06-26T08:44:56;29.20;96.70
25983;DHT22;13773;48.868;10.730;2023-06-26T08:47:22;29.40;96.60
25983;DHT22;13773;48.868;10.730;2023-06-26T08:50:10;29.40;96.30
25983;DHT22;13773;48.868;10.730;2023-06-26T08:52:40;29.50;95.40
25983;DHT22;13773;48.868;10.730;2023-06-26T08:55:10;29.50;95.60
25983;DHT22;13773;48.868;10.730;2023-06-26T08:57:39;29.10;95.80
25983;DHT22;13773;48.868;10.730;2023-06-26T09:00:06;28.80;96.60
25983;DHT22;13773;48.868;10.730;2023-06-26T09:02:35;28.60;97.30
25983;DHT22;13773;48.868;10.730;2023-06-26T09:05:02;29.00;97.40
25983;DHT22;13773;48.868;10.730;2023-06-26T09:07:28;29.20;96.30
25983;DHT22;13773;48.868;10.730;2023-06-26T09:09:54;29.30;97.00
25983;DHT22;13773;48.868;10.730;2023-06-26T09:12:21;29.70;96.30
25983;DHT22;13773;48.868;10.730;2023-06-26T09:14:47;29.90;95.90
25983;DHT22;13773;48.868;10.730;2023-06-26T09:17:13;29.70;96.80
25983;DHT22;13773;48.868;10.730;2023-06-26T09:19:39;29.30;94.20
25983;DHT22;13773;48.868;10.730;2023-06-26T09:22:11;29.00;94.90
25983;DHT22;13773;48.868;10.730;2023-06-26T09:24:40;29.10;95.90
25983;DHT22;13773;48.868;10.730;2023-06-26T09:27:06;29.40;95.80
25983;DHT22;13773;48.868;10.730;2023-06-26T09:29:32;29.50;95.50
25983;DHT22;13773;48.868;10.730;2023-06-26T09:31:59;29.30;96.50
25983;DHT22;13773;48.868;10.730;2023-06-26T09:34:30;29.60;95.80
25983;DHT22;13773;48.868;10.730;2023-06-26T09:36:58;29.60;95.10
25983;DHT22;13773;48.868;10.730;2023-06-26T09:39:23;29.50;95.60
25983;DHT22;13773;48.868;10.730;2023-06-26T09:41:50;29.70;94.20
25983;DHT22;13773;48.868;10.730;2023-06-26T09:44:15;29.60;92.00
25983;DHT22;13773;48.868;10.730;2023-06-26T09:46:44;29.70;92.90
25983;DHT22;13773;48.868;10.730;2023-06-26T09:49:11;30.00;93.10
25983;DHT22;13773;48.868;10.730;2023-06-26T09:51:38;29.70;92.20
25983;DHT22;13773;48.868;10.730;2023-06-26T09:54:05;29.70;91.80
25983;DHT22;13773;48.868;10.730;2023-06-26T09:56:32;29.60;91.90
25983;DHT22;13773;48.868;10.730;2023-06-26T09:59:03;29.60;91.60
25983;DHT22;13773;48.868;10.730;2023-06-26T10:01:31;29.40;91.20
25983;DHT22;13773;48.868;10.730;2023-06-26T10:03:57;29.30;91.00
25983;DHT22;13773;48.868;10.730;2023-06-26T10:06:36;29.30;90.70
25983;DHT22;13773;48.868;10.730;2023-06-26T10:09:03;29.50;91.50
25983;DHT22;13773;48.868;10.730;2023-06-26T10:11:57;29.20;91.50
25983;DHT22;13773;48.868;10.730;2023-06-26T10:14:27;29.50;90.90
25983;DHT22;13773;48.868;10.730;2023-06-26T10:16:57;29.50;90.60
25983;DHT22;13773;48.868;10.730;2023-06-26T10:19:24;29.90;91.10
25983;DHT22;13773;48.868;10.730;2023-06-26T10:21:53;30.00;90.70
25983;DHT22;13773;48.868;10.730;2023-06-26T10:24:20;30.10;90.80
25983;DHT22;13773;48.868;10.730;2023-06-26T10:26:50;29.90;90.50
25983;DHT22;13773;48.868;10.730;2023-06-26T10:29:19;29.70;91.00
25983;DHT22;13773;48.868;10.730;2023-06-26T10:31:51;29.30;90.90
25983;DHT22;13773;48.868;10.730;2023-06-26T10:34:18;29.60;91.60
25983;DHT22;13773;48.868;10.730;2023-06-26T10:36:44;29.90;90.90
25983;DHT22;13773;48.868;10.730;2023-06-26T10:39:09;29.80;90.70
25983;DHT22;13773;48.868;10.730;2023-06-26T10:41:40;30.20;91.40
25983;DHT22;13773;48.868;10.730;2023-06-26T10:44:19;30.10;90.40
25983;DHT22;13773;48.868;10.730;2023-06-26T10:46:56;30.30;90.20
25983;DHT22;13773;48.868;10.730;2023-06-26T10:49:29;30.60;90.70
25983;DHT22;13773;48.868;10.730;2023-06-26T10:51:55;29.20;90.30
25983;DHT22;13773;48.868;10.730;2023-06-26T10:54:28;30.70;90.00
25983;DHT22;13773;48.868;10.730;2023-06-26T10:56:56;30.90;90.90
25983;DHT22;13773;48.868;10.730;2023-06-26T10:59:24;31.00;90.60
25983;DHT22;13773;48.868;10.730;2023-06-26T11:02:25;31.00;90.30
25983;DHT22;13773;48.868;10.730;2023-06-26T11:04:51;30.50;88.70
25983;DHT22;13773;48.868;10.730;2023-06-26T11:07:23;30.40;90.30
25983;DHT22;13773;48.868;10.730;2023-06-26T11:09:59;30.60;90.40
25983;DHT22;13773;48.868;10.730;2023-06-26T11:12:35;30.50;88.90
25983;DHT22;13773;48.868;10.730;2023-06-26T11:15:03;30.60;89.30
25983;DHT22;13773;48.868;10.730;2023-06-26T11:17:29;31.20;87.50
25983;DHT22;13773;48.868;10.730;2023-06-26T11:19:55;31.00;87.90
25983;DHT22;13773;48.868;10.730;2023-06-26T11:22:21;31.10;88.70
25983;DHT22;13773;48.868;10.730;2023-06-26T11:24:49;31.60;89.40
25983;DHT22;13773;48.868;10.730;2023-06-26T11:27:18;32.00;87.70
25983;DHT22;13773;48.868;10.730;2023-06-26T11:29:48;31.60;88.60
25983;DHT22;13773;48.868;10.730;2023-06-26T11:32:15;31.60;86.90
25983;DHT22;13773;48.868;10.730;2023-06-26T11:34:40;31.90;86.30
25983;DHT22;13773;48.868;10.730;2023-06-26T11:37:08;31.80;86.50
25983;DHT22;13773;48.868;10.730;2023-06-26T11:39:34;32.20;86.50
25983;DHT22;13773;48.868;10.730;2023-06-26T11:42:00;32.20;86.00
25983;DHT22;13773;48.868;10.730;2023-06-26T11:44:30;31.50;85.50
25983;DHT22;13773;48.868;10.730;2023-06-26T11:46:57;31.60;85.30
25983;DHT22;13773;48.868;10.730;2023-06-26T11:49:24;32.00;84.60
25983;DHT22;13773;48.868;10.730;2023-06-26T11:51:52;31.70;85.70
25983;DHT22;13773;48.868;10.730;2023-06-26T11:54:26;31.30;88.30
25983;DHT22;13773;48.868;10.730;2023-06-26T11:56:59;31.40;85.40
25983;DHT22;13773;48.868;10.730;2023-06-26T11:59:33;31.50;85.50
25983;DHT22;13773;48.868;10.730;2023-06-26T12:02:09;31.30;86.10
25983;DHT22;13773;48.868;10.730;2023-06-26T12:04:37;30.70;85.30
25983;DHT22;13773;48.868;10.730;2023-06-26T12:07:05;30.00;84.60
25983;DHT22;13773;48.868;10.730;2023-06-26T12:09:34;30.10;84.10
25983;DHT22;13773;48.868;10.730;2023-06-26T12:12:03;30.40;82.50
25983;DHT22;13773;48.868;10.730;2023-06-26T12:14:30;30.70;83.80
25983;DHT22;13773;48.868;10.730;2023-06-26T12:17:04;31.10;82.30
25983;DHT22;13773;48.868;10.730;2023-06-26T12:19:31;31.00;82.70
25983;DHT22;13773;48.868;10.730;2023-06-26T12:21:57;31.00;83.60
25983;DHT22;13773;48.868;10.730;2023-06-26T12:24:24;31.20;84.00
25983;DHT22;13773;48.868;10.730;2023-06-26T12:26:55;30.70;85.00
25983;DHT22;13773;48.868;10.730;2023-06-26T12:29:32;30.70;85.60
25983;DHT22;13773;48.868;10.730;2023-06-26T12:31:58;31.10;85.40
25983;DHT22;13773;48.868;10.730;2023-06-26T12:34:28;31.40;85.30
25983;DHT22;13773;48.868;10.730;2023-06-26T12:36:58;31.30;83.60
25983;DHT22;13773;48.868;10.730;2023-06-26T12:39:25;29.80;82.80
25983;DHT22;13773;48.868;10.730;2023-06-26T12:41:55;31.30;85.10
25983;DHT22;13773;48.868;10.730;2023-06-26T12:44:25;31.00;83.70
25983;DHT22;13773;48.868;10.730;2023-06-26T12:46:57;31.20;85.90
25983;DHT22;13773;48.868;10.730;2023-06-26T12:49:34;31.00;83.20
25983;DHT22;13773;48.868;10.730;2023-06-26T12:52:01;30.80;83.70
25983;DHT22;13773;48.868;10.730;2023-06-26T12:54:27;30.70;85.40
25983;DHT22;13773;48.868;10.730;2023-06-26T12:56:53;30.30;85.40
25983;DHT22;13773;48.868;10.730;2023-06-26T12:59:20;30.40;84.70
25983;DHT22;13773;48.868;10.730;2023-06-26T13:01:46;30.50;85.40
25983;DHT22;13773;48.868;10.730;2023-06-26T13:04:12;30.80;85.00
25983;DHT22;13773;48.868;10.730;2023-06-26T13:06:37;31.00;84.10
25983;DHT22;13773;48.868;10.730;2023-06-26T13:09:03;31.70;86.90
25983;DHT22;13773;48.868;10.730;2023-06-26T13:11:30;31.60;84.20
25983;DHT22;13773;48.868;10.730;2023-06-26T13:13:56;32.00;84.00
25983;DHT22;13773;48.868;10.730;2023-06-26T13:16:22;31.80;84.50
25983;DHT22;13773;48.868;10.730;2023-06-26T13:18:48;31.10;85.80
25983;DHT22;13773;48.868;10.730;2023-06-26T13:21:14;31.00;86.10
25983;DHT22;13773;48.868;10.730;2023-06-26T13:23:42;30.60;86.30
25983;DHT22;13773;48.868;10.730;2023-06-26T13:26:08;30.70;86.30
25983;DHT22;13773;48.868;10.730;2023-06-26T13:28:34;30.30;87.50
25983;DHT22;13773;48.868;10.730;2023-06-26T13:31:00;30.30;88.40
25983;DHT22;13773;48.868;10.730;2023-06-26T13:33:27;30.40;89.00
25983;DHT22;13773;48.868;10.730;2023-06-26T13:35:53;30.30;89.30
25983;DHT22;13773;48.868;10.730;2023-06-26T13:38:22;30.20;89.70
25983;DHT22;13773;48.868;10.730;2023-06-26T13:40:54;30.10;90.00
25983;DHT22;13773;48.868;10.730;2023-06-26T13:43:22;30.10;90.00
25983;DHT22;13773;48.868;10.730;2023-06-26T13:46:08;30.40;90.20
25983;DHT22;13773;48.868;10.730;2023-06-26T13:48:34;30.60;89.40
25983;DHT22;13773;48.868;10.730;2023-06-26T13:51:00;30.80;89.40
25983;DHT22;13773;48.868;10.730;2023-06-26T13:53:27;31.10;89.40
25983;DHT22;13773;48.868;10.730;2023-06-26T13:55:52;31.20;88.90
25983;DHT22;13773;48.868;10.730;2023-06-26T13:58:18;31.40;88.40
25983;DHT22;13773;48.868;10.730;2023-06-26T14:00:44;31.40;87.50
25983;DHT22;13773;48.868;10.730;2023-06-26T14:03:10;31.60;87.60
25983;DHT22;13773;48.868;10.730;2023-06-26T14:05:37;31.30;88.30
25983;DHT22;13773;48.868;10.730;2023-06-26T14:08:04;31.50;87.20
25983;DHT22;13773;48.868;10.730;2023-06-26T14:10:31;31.90;87.60
25983;DHT22;13773;48.868;10.730;2023-06-26T14:12:58;32.30;87.00
25983;DHT22;13773;48.868;10.730;2023-06-26T14:15:24;32.50;87.00
25983;DHT22;13773;48.868;10.730;2023-06-26T14:17:50;32.40;87.90
25983;DHT22;13773;48.868;10.730;2023-06-26T14:20:18;32.40;86.90
25983;DHT22;13773;48.868;10.730;2023-06-26T14:22:45;32.20;87.10
25983;DHT22;13773;48.868;10.730;2023-06-26T14:25:11;32.30;86.50
25983;DHT22;13773;48.868;10.730;2023-06-26T14:27:38;32.00;87.30
25983;DHT22;13773;48.868;10.730;2023-06-26T14:30:05;31.80;88.10
25983;DHT22;13773;48.868;10.730;2023-06-26T14:32:31;31.90;88.60
25983;DHT22;13773;48.868;10.730;2023-06-26T14:34:57;31.80;88.00
25983;DHT22;13773;48.868;10.730;2023-06-26T14:37:23;31.50;88.10
25983;DHT22;13773;48.868;10.730;2023-06-26T14:39:49;31.60;88.60
25983;DHT22;13773;48.868;10.730;2023-06-26T14:42:15;31.70;88.70
25983;DHT22;13773;48.868;10.730;2023-06-26T14:44:41;31.70;89.60
25983;DHT22;13773;48.868;10.730;2023-06-26T14:47:07;31.30;89.60
25983;DHT22;13773;48.868;10.730;2023-06-26T14:49:33;31.10;90.50
25983;DHT22;13773;48.868;10.730;2023-06-26T14:51:59;30.90;90.30
25983;DHT22;13773;48.868;10.730;2023-06-26T14:54:25;30.60;90.20
25983;DHT22;13773;48.868;10.730;2023-06-26T14:56:50;30.70;90.80
25983;DHT22;13773;48.868;10.730;2023-06-26T14:59:16;30.80;91.20
25983;DHT22;13773;48.868;10.730;2023-06-26T15:01:42;31.00;91.20
25983;DHT22;13773;48.868;10.730;2023-06-26T15:04:08;30.50;91.80
25983;DHT22;13773;48.868;10.730;2023-06-26T15:06:36;30.50;91.90
25983;DHT22;13773;48.868;10.730;2023-06-26T15:09:03;30.40;91.90
25983;DHT22;13773;48.868;10.730;2023-06-26T15:11:29;30.30;91.60
25983;DHT22;13773;48.868;10.730;2023-06-26T15:13:55;30.50;92.10
25983;DHT22;13773;48.868;10.730;2023-06-26T15:16:21;30.70;91.20
25983;DHT22;13773;48.868;10.730;2023-06-26T15:18:47;30.30;91.90
25983;DHT22;13773;48.868;10.730;2023-06-26T15:21:13;30.30;92.00